• Join FlightAware (Why Join?)
  • Login
  • US Flag 
04:40AM EDT


 

Airport Tracker/Info


-or-


 

Live Flight TrackerFlight Track Log ✈ ASQ4198 ✈ 07-May-2013 ✈ KIAH - KPBI

Flight Track Log - Related Links

Times and Time Zones

All times are in EDT time to prevent confusion due to time zone crossing. See the ASQ4198 flight status page for this flight to view local times or setup timezone preferences in your user account.

Time Position Orientation Groundspeed Altitude Reporting Facility
EDT Latitude Longitude Course Direction KTS MPH feet Rate Location/Type
02:31PM 29.9428 -95.3194 97° East 184 212 1,800  Level Houston Center
02:32PM 29.9014 -95.2592 128° Southeast 253 291 3,800 1,260 Climbing Houston Center
02:33PM 29.8503 -95.1836 128° Southeast 270 311 4,600 1,620 Climbing Houston Center
02:34PM 29.9126 -94.8181 95° East  Level FlightAware Approximate
02:34PM 29.8019 -95.1147 129° Southeast 278 320 7,300  Level Houston Center
02:35PM 29.9018 -94.6883 95° East  Level FlightAware Approximate
02:35PM 29.7983 -95.0308 93° East 296 341 9,600  Level Houston Center
02:35PM 29.8017 -95.0108 79° East 291 335 10,100 1,140 Climbing Houston Center
02:36PM 29.8876 -94.5543 97° East  Level FlightAware Approximate
02:36PM 29.8111 -94.9089 84° East 313 360 11,100  Level Houston Center
02:37PM 29.8219 -94.7886 84° East 367 422 12,400 1,320 Climbing Houston Center
02:38PM 29.8325 -94.6656 84° East 383 441 13,900 1,440 Climbing Houston Center
02:39PM 29.8436 -94.5389 84° East 395 455 15,400 1,560 Climbing Houston Center
02:40PM 29.8569 -94.3847 84° East 404 465 17,200 1,500 Climbing Houston Center
02:41PM 29.8608 -94.2533 88° East 409 471 18,600 1,320 Climbing Houston Center
02:42PM 29.8556 -94.1167 93° East 416 479 20,000 1,200 Climbing Houston Center
02:43PM 29.8600 -93.9817 88° East 424 488 21,200 1,140 Climbing Houston Center
02:44PM 29.8756 -93.8464 82° East 429 494 22,400 1,020 Climbing Houston Center
02:45PM 29.8892 -93.7083 83° East 437 503 23,400 1,020 Climbing Houston Center
02:46PM 29.9067 -93.5392 83° East 448 516 24,600 960 Climbing Houston Center
02:47PM 29.9208 -93.3986 83° East 447 514 25,500 960 Climbing Houston Center
02:48PM 29.9358 -93.2572 83° East 449 517 26,600 900 Climbing Houston Center
02:49PM 29.9494 -93.1131 84° East 453 521 27,400 840 Climbing Houston Center
02:50PM 29.9639 -92.9703 83° East 451 519 28,400 1,020 Climbing Houston Center
02:51PM 29.9792 -92.8000 84° East 448 516 29,600 1,020 Climbing Houston Center
02:52PM 29.9903 -92.6556 85° East 452 520 30,600 960 Climbing Houston Center
02:54PM 30.0019 -92.5128 85° East 450 518 31,700 960 Climbing Houston Center
02:55PM 30.0142 -92.3683 84° East 453 521 32,700 960 Climbing Houston Center
02:56PM 30.0383 -92.2272 79° East 452 520 33,700 960 Climbing Houston Center
02:57PM 30.0656 -92.0872 77° East 448 516 34,700 600 Climbing Houston Center
02:58PM 30.0986 -91.9175 77° East 451 519 35,000 120 Climbing Houston Center
02:59PM 30.1261 -91.7719 78° East 461 531 35,000  Level Houston Center
03:00PM 30.1581 -91.6050 77° East 478 550 35,000  Level Houston Center
03:01PM 30.1872 -91.4519 78° East 488 562 35,000  Level Houston Center
03:02PM 30.2131 -91.2994 79° East 485 558 35,000  Level Houston Center
03:03PM 30.2261 -91.1436 84° East 487 560 35,000  Level Houston Center
03:04PM 30.2369 -90.9872 85° East 489 563 35,000  Level Houston Center
03:05PM 30.2489 -90.8308 85° East 489 563 35,000  Level Houston Center
03:06PM 30.2628 -90.6419 85° East 491 565 35,000  Level Houston Center
03:07PM 30.2728 -90.4856 86° East 491 565 35,000  Level Houston Center
03:08PM 30.2839 -90.3286 85° East 490 564 35,000  Level Houston Center
03:09PM 30.2942 -90.1708 86° East 492 566 35,000  Level Houston Center
03:10PM 30.3044 -90.0125 86° East 494 568 35,000  Level Houston Center
03:11PM 30.3147 -89.8481 86° East 498 573 35,000  Level Houston Center
03:12PM 30.3275 -89.6564 86° East 499 574 35,000  Level Houston Center
03:13PM 30.3369 -89.5144 86° East 502 578 35,000  Level Houston Center
03:14PM 30.3472 -89.3542 86° East 500 575 35,000  Level Houston Center
03:15PM 30.3564 -89.1603 87° East 506 582 35,000  Level Houston Center
03:16PM 30.3669 -89.0000 86° East 502 578 35,000  Level Houston Center
03:17PM 30.3744 -88.8533 87° East 502 578 35,000  Level Houston Center
03:18PM 30.3864 -88.6614 86° East 502 578 35,000  Level Houston Center
03:19PM 30.3947 -88.5028 86° East 498 573 35,000  Level Houston Center
03:20PM 30.4028 -88.3456 87° East 495 570 35,000  Level Houston Center
03:21PM 30.4122 -88.1881 86° East 494 568 35,000  Level Houston Center
03:23PM 30.4225 -87.9994 86° East 494 568 35,000  Level Houston Center
03:24PM 30.4297 -87.8428 87° East 492 566 35,000  Level Houston Center
03:25PM 30.4378 -87.6856 87° East 492 566 35,000  Level Houston Center
03:26PM 30.4458 -87.5275 87° East 496 571 35,000  Level Houston Center
03:27PM 30.4542 -87.3333 87° East 494 568 35,000  Level Jacksonville Center
03:28PM 30.4619 -87.1722 87° East 494 568 35,000  Level Jacksonville Center
03:29PM 30.4672 -87.0136 88° East 494 568 35,000  Level Jacksonville Center
03:30PM 30.4717 -86.8739 88° East 494 568 35,000  Level Jacksonville Center
03:31PM 30.4828 -86.7131 85° East 494 568 35,000  Level Jacksonville Center
03:32PM 30.4894 -86.5542 87° East 494 568 35,000  Level Jacksonville Center
03:33PM 30.4939 -86.3953 88° East 494 568 35,000 -60 Level Jacksonville Center
03:34PM 30.5003 -86.2389 87° East 494 568 34,900  Descending Jacksonville Center
03:35PM 30.4519 -86.0900 111° Southeast 476 548 35,000  Climbing Jacksonville Center
03:36PM 30.3736 -85.9622 125° Southeast 465 535 35,000  Level Jacksonville Center
03:37PM 30.2953 -85.8347 125° Southeast 477 549 35,000  Level Jacksonville Center
03:38PM 30.2044 -85.6950 127° Southeast 482 555 35,000  Level Jacksonville Center
03:39PM 30.1236 -85.5750 128° Southeast 488 562 35,000  Level Jacksonville Center
03:40PM 30.0469 -85.4408 123° Southeast 488 562 35,000  Level Jacksonville Center
03:41PM 29.9700 -85.3117 124° Southeast 494 568 35,000  Level Jacksonville Center
03:42PM 29.8911 -85.1828 125° Southeast 494 568 35,000  Level Jacksonville Center
03:43PM 29.8119 -85.0564 126° Southeast 494 568 35,000  Level Jacksonville Center
03:44PM 29.7303 -84.9303 127° Southeast 489 563 35,000  Level Jacksonville Center
03:45PM 29.6531 -84.8044 125° Southeast 484 557 35,000  Level Jacksonville Center
03:46PM 29.5733 -84.6811 127° Southeast 484 557 35,000  Level Jacksonville Center
03:47PM 29.4958 -84.5556 125° Southeast 484 557 35,000  Level Jacksonville Center
03:48PM 29.4219 -84.4472 128° Southeast 476 548 35,000  Level Jacksonville Center
03:49PM 29.3461 -84.3219 125° Southeast 476 548 35,000  Level Jacksonville Center
03:50PM 29.2661 -84.1969 126° Southeast 481 554 35,000  Level Jacksonville Center
03:51PM 29.1858 -84.0747 127° Southeast 481 554 35,000  Level Jacksonville Center
03:52PM 29.1078 -83.9503 126° Southeast 481 554 35,000  Level Jacksonville Center
03:53PM 29.0272 -83.8258 126° Southeast 481 554 35,000  Level Jacksonville Center
03:54PM 28.9508 -83.7064 126° Southeast 481 554 35,000  Level Jacksonville Center
03:55PM 28.8681 -83.5803 127° Southeast 489 563 35,000  Level Jacksonville Center
03:56PM 28.7872 -83.4564 127° Southeast 489 563 35,000  Level Jacksonville Center
03:57PM 28.7000 -83.3400 130° Southeast 482 555 35,000  Level Jacksonville Center
03:58PM 28.6003 -83.2403 139° Southeast 476 548 35,000  Level Jacksonville Center
03:59PM 28.5003 -83.1406 139° Southeast 476 548 35,000 -60 Level Jacksonville Center
04:01PM 28.2908 -82.9386 140° Southeast 473 544 34,900  Descending Miami Center
04:02PM 28.1906 -82.8389 139° Southeast 478 550 35,000  Climbing Miami Center
04:03PM 28.0906 -82.7394 139° Southeast 478 550 35,000  Level Miami Center
04:04PM 27.9739 -82.6347 142° Southeast 486 559 35,000  Level Miami Center
04:05PM 27.8683 -82.5567 147° Southeast 475 547 35,000 -180 Level Miami Center
04:06PM 27.7611 -82.4739 146° Southeast 469 540 34,700 -1,080 Descending Miami Center
04:07PM 27.6658 -82.4036 147° Southeast 464 534 32,900 -1,920 Descending Miami Center
04:08PM 27.5583 -82.3236 147° Southeast 471 542 30,900 -2,100 Descending Miami Center
04:09PM 27.4364 -82.2336 147° Southeast 472 543 28,700 -2,100 Descending Miami Center
04:10PM 27.3267 -82.1536 147° Southeast 470 541 26,700 -1,980 Descending Miami Center
04:11PM 27.2128 -82.0692 147° Southeast 475 547 24,800 -1,380 Descending Miami Center
04:12PM 27.1194 -81.9994 146° Southeast 459 528 24,000 -420 Descending Miami Center
04:13PM 27.0136 -81.9203 146° Southeast 459 528 24,000 -1,260 Level Miami Center
04:14PM 26.9036 -81.8456 149° Southeast 465 535 21,500 -2,460 Descending Miami Center
04:15PM 26.8058 -81.7717 146° Southeast 458 527 19,100 -1,260 Descending Miami Center
04:16PM 26.7147 -81.6842 139° Southeast 439 505 19,000 -240 Descending Miami Center
04:17PM 26.7133 -81.5378 91° East 402 463 18,700 -960 Descending Miami Center
04:18PM 26.7472 -81.3881 76° East 410 472 17,100 -2,220 Descending Miami Center
04:19PM 26.7761 -81.2633 75° East 416 479 14,300 900 Descending Miami Center
04:20PM 26.8050 -81.1389 75° East 416 479 19,000 -2,100 Climbing Miami Center
04:21PM 26.8247 -81.0303 78° East 403 464 10,100 -4,500 Descending Miami Center
04:22PM 26.8367 -80.9097 84° East 397 457 10,100 -60 Level Miami Center
04:23PM 26.8128 -80.7831 102° East 382 440 10,000  Descending Miami Center
04:24PM 26.7739 -80.6819 113° Southeast 377 434 10,100 -300 Climbing Miami Center
04:25PM 26.7347 -80.5783 113° Southeast 346 398 9,400 -1,020 Descending Miami Center
04:26PM 26.7097 -80.5008 110° East 301 346 8,100 -660 Descending Miami Center
04:27PM 26.6742 -80.4114 114° Southeast 285 328 8,100  Level Miami Center
04:28PM 26.6447 -80.3314 112° Southeast 290 334 8,100 -660 Level Miami Center
04:29PM 26.6094 -80.2375 113° Southeast 296 341 6,800 -1,560 Descending Miami Center
04:30PM 26.5903 -80.1578 105° East 283 326 5,000 -1,440 Descending Miami Center
04:31PM 26.5903 -80.0719 90° East 276 318 4,000 -1,020 Descending Miami Center
04:33PM 26.6667 -80.0833 50° Northeast  Level FlightAware Approximate
04:40PM 26.6832 -80.0956 50° Northeast  Level Estimated
04:41PM 26.6832 -80.0956 50° Northeast  Level Estimated
04:42PM 26.6832 -80.0956 50° Northeast  Level Estimated
04:43PM 26.6832 -80.0956 50° Northeast  Level Estimated
04:44PM 26.6832 -80.0956 50° Northeast  Level Estimated